createdAt,value
2018-04-13T00:00:23.520Z,33.50
2018-04-13T00:02:53.630Z,29.90
2018-04-13T00:05:23.951Z,24.90
2018-04-13T00:07:58.894Z,21.60
2018-04-13T00:10:29.667Z,9.87
2018-04-13T00:12:59.727Z,7.53
2018-04-13T00:15:30.520Z,6.30
2018-04-13T00:18:00.677Z,10.27
2018-04-13T00:20:33.957Z,12.27
2018-04-13T00:23:04.909Z,11.90
2018-04-13T00:25:35.774Z,10.50
2018-04-13T00:28:06.642Z,13.20
2018-04-13T00:30:37.879Z,15.57
2018-04-13T00:33:07.979Z,14.43
2018-04-13T00:35:38.888Z,14.50
2018-04-13T00:38:08.972Z,15.43
2018-04-13T00:40:41.353Z,13.97
2018-04-13T00:43:11.647Z,14.30
2018-04-13T00:45:41.867Z,13.40
2018-04-13T00:48:11.934Z,14.43
2018-04-13T00:50:42.044Z,13.93
2018-04-13T00:53:23.292Z,13.13
2018-04-13T00:55:53.513Z,12.80
2018-04-13T00:58:23.620Z,12.87
2018-04-13T01:00:53.999Z,11.93
2018-04-13T01:03:24.142Z,12.20
2018-04-13T01:05:54.236Z,11.27
2018-04-13T01:08:25.211Z,14.10
2018-04-13T01:11:02.663Z,13.23
2018-04-13T01:13:32.776Z,12.30
2018-04-13T01:16:02.827Z,12.43
2018-04-13T01:18:35.217Z,11.60
2018-04-13T01:21:05.295Z,11.67
2018-04-13T01:23:35.468Z,12.20
2018-04-13T01:26:05.603Z,11.37
2018-04-13T01:28:35.747Z,10.53
2018-04-13T01:31:08.555Z,10.87
2018-04-13T01:33:38.639Z,11.23
2018-04-13T01:36:08.827Z,11.23
2018-04-13T01:38:39.368Z,11.73
2018-04-13T01:41:09.432Z,10.33
2018-04-13T01:43:39.522Z,10.90
2018-04-13T01:46:10.181Z,11.63
2018-04-13T01:48:40.224Z,10.87
2018-04-13T01:51:11.068Z,11.13
2018-04-13T01:53:59.858Z,11.77
2018-04-13T01:56:29.940Z,10.27
2018-04-13T01:59:00.870Z,9.60
2018-04-13T02:01:30.941Z,9.97
2018-04-13T02:04:01.423Z,11.40
2018-04-13T02:06:31.546Z,9.83
2018-04-13T02:09:08.493Z,10.13
2018-04-13T02:11:38.611Z,10.40
2018-04-13T02:14:08.744Z,9.20
2018-04-13T02:16:39.090Z,10.40
2018-04-13T02:19:09.571Z,10.20
2018-04-13T02:21:39.699Z,9.93
2018-04-13T02:24:09.936Z,9.50
2018-04-13T02:26:40.773Z,9.97
2018-04-13T02:29:12.486Z,9.10
2018-04-13T02:31:42.537Z,9.40
2018-04-13T02:34:12.660Z,10.27
2018-04-13T02:36:42.834Z,9.70
2018-04-13T02:39:13.446Z,8.63
2018-04-13T02:41:43.578Z,9.90
2018-04-13T02:44:13.791Z,9.83
2018-04-13T02:46:43.928Z,8.83
2018-04-13T02:49:14.931Z,8.40
2018-04-13T02:51:45.043Z,9.67
2018-04-13T02:54:17.653Z,9.70
2018-04-13T02:56:47.697Z,9.07
2018-04-13T02:59:17.797Z,9.50
2018-04-13T03:01:48.639Z,9.30
2018-04-13T03:04:18.686Z,10.40
2018-04-13T03:06:48.686Z,9.90
2018-04-13T03:09:18.822Z,10.90
2018-04-13T03:11:48.832Z,9.13
2018-04-13T03:14:18.995Z,8.90
2018-04-13T03:16:50.543Z,10.10
2018-04-13T03:19:20.687Z,8.77
2018-04-13T03:21:50.730Z,7.50
2018-04-13T03:24:20.876Z,9.20
2018-04-13T03:26:50.936Z,9.07
2018-04-13T03:29:20.996Z,10.00
2018-04-13T03:31:56.209Z,9.60
2018-04-13T03:34:26.302Z,8.40
2018-04-13T03:36:56.334Z,9.00
2018-04-13T03:39:26.419Z,10.00
2018-04-13T03:41:56.661Z,8.83
2018-04-13T03:44:26.735Z,8.97
2018-04-13T03:46:56.852Z,9.07
2018-04-13T03:49:27.248Z,9.97
2018-04-13T03:51:57.374Z,9.33
2018-04-13T03:54:27.476Z,9.03
2018-04-13T03:56:57.614Z,9.50
2018-04-13T03:59:32.274Z,9.00
2018-04-13T04:02:02.916Z,8.77
2018-04-13T04:04:33.730Z,8.93
2018-04-13T04:07:04.054Z,8.67
2018-04-13T04:09:35.276Z,8.50
2018-04-13T04:42:01.932Z,10.83
2018-04-13T05:25:32.025Z,16.23
2018-04-13T06:14:19.305Z,21.60
2018-04-13T06:41:27.303Z,29.03
2018-04-13T06:47:26.430Z,29.23
2018-04-13T07:11:02.487Z,27.87
2018-04-13T07:13:33.957Z,42.73
2018-04-13T07:16:04.629Z,42.50
2018-04-13T07:18:36.068Z,46.13
2018-04-13T07:21:14.717Z,45.10
2018-04-13T07:23:46.435Z,47.77
2018-04-13T07:26:18.128Z,47.10
2018-04-13T07:28:49.675Z,46.27
2018-04-13T07:37:20.996Z,45.13
2018-04-13T07:39:53.186Z,46.43
2018-04-13T07:42:23.869Z,45.07
2018-04-13T07:44:54.829Z,45.70
2018-04-13T07:47:28.830Z,43.80
2018-04-13T07:50:00.170Z,46.10
2018-04-13T07:52:32.605Z,45.30
2018-04-13T07:55:05.437Z,42.57
2018-04-13T07:57:38.121Z,45.27
2018-04-13T08:00:08.709Z,44.80
2018-04-13T08:02:40.924Z,43.87
2018-04-13T08:05:12.051Z,45.70
2018-04-13T08:07:43.110Z,45.57
2018-04-13T08:10:14.182Z,42.97
2018-04-13T08:12:45.041Z,42.87
2018-04-13T08:15:15.426Z,44.73
2018-04-13T08:17:46.680Z,42.87
2018-04-13T08:20:17.249Z,44.70
2018-04-13T08:22:49.010Z,42.77
2018-04-13T08:25:20.084Z,44.87
2018-04-13T08:27:50.915Z,43.20
2018-04-13T08:30:21.646Z,44.47
2018-04-13T08:32:52.424Z,44.70
2018-04-13T08:35:23.827Z,45.23
2018-04-13T08:37:56.334Z,45.43
2018-04-13T08:40:27.815Z,44.30
2018-04-13T08:42:59.568Z,47.57
2018-04-13T08:45:31.241Z,47.53
2018-04-13T08:48:01.880Z,46.57
2018-04-13T08:50:33.128Z,41.50
2018-04-13T08:53:04.298Z,44.80
2018-04-13T08:55:36.814Z,43.50
2018-04-13T08:58:07.957Z,45.77
2018-04-13T09:00:39.031Z,43.00
2018-04-13T09:03:12.023Z,45.63
2018-04-13T09:05:46.146Z,42.87
2018-04-13T09:08:17.896Z,44.73
2018-04-13T09:10:49.279Z,43.53
2018-04-13T09:13:20.235Z,46.20
2018-04-13T09:15:51.039Z,42.47
2018-04-13T09:18:22.452Z,45.13
2018-04-13T09:20:53.598Z,43.10
2018-04-13T09:23:24.501Z,43.33
2018-04-13T09:25:55.326Z,43.93
2018-04-13T09:28:26.915Z,44.77
2018-04-13T09:30:59.218Z,43.07
2018-04-13T09:33:31.408Z,43.43
2018-04-13T09:36:02.571Z,44.07
2018-04-13T09:38:34.400Z,43.80
2018-04-13T09:41:05.844Z,43.80
2018-04-13T09:43:36.692Z,46.87
2018-04-13T09:46:07.695Z,44.30
2018-04-13T09:48:38.667Z,44.73
2018-04-13T09:51:09.514Z,43.97
2018-04-13T09:53:40.068Z,46.27
2018-04-13T09:56:11.389Z,45.17
2018-04-13T09:58:42.175Z,43.60
2018-04-13T10:01:13.699Z,45.27
2018-04-13T10:03:49.045Z,44.77
2018-04-13T10:06:20.048Z,45.80
2018-04-13T10:08:51.092Z,43.87
2018-04-13T10:11:22.499Z,44.80
2018-04-13T10:13:53.831Z,44.10
2018-04-13T10:16:24.812Z,45.37
2018-04-13T10:18:55.614Z,45.40
2018-04-13T10:21:26.631Z,45.07
2018-04-13T10:23:57.801Z,44.23
2018-04-13T10:26:28.487Z,46.80
2018-04-13T10:28:59.613Z,44.07
2018-04-13T10:31:30.653Z,46.43
2018-04-13T10:34:01.604Z,45.63
2018-04-13T10:36:32.268Z,44.57
2018-04-13T10:39:03.206Z,42.87
2018-04-13T10:41:34.039Z,44.93
2018-04-13T10:44:06.263Z,43.27
2018-04-13T10:46:37.227Z,43.10
2018-04-13T10:49:08.396Z,44.03
2018-04-13T10:51:39.160Z,42.03
2018-04-13T10:54:11.922Z,40.93
2018-04-13T10:56:43.441Z,40.17
2018-04-13T10:59:14.610Z,41.90
2018-04-13T11:01:46.248Z,39.57
2018-04-13T11:04:17.459Z,41.00
2018-04-13T11:06:48.365Z,42.23
2018-04-13T11:09:19.312Z,43.00
2018-04-13T11:11:51.108Z,40.63
2018-04-13T11:14:22.256Z,39.80
2018-04-13T11:16:53.530Z,40.70
2018-04-13T11:19:24.420Z,43.40
2018-04-13T11:21:55.519Z,40.60
2018-04-13T11:24:26.988Z,43.27
2018-04-13T11:26:57.757Z,43.03
2018-04-13T11:29:29.922Z,41.20
2018-04-13T11:32:01.773Z,43.90
2018-04-13T11:34:33.787Z,42.67
2018-04-13T11:37:04.837Z,42.07
2018-04-13T11:39:36.100Z,41.50
2018-04-13T11:42:06.964Z,42.80
2018-04-13T11:44:38.666Z,41.43
2018-04-13T11:47:09.822Z,40.67
2018-04-13T11:49:41.247Z,42.07
2018-04-13T11:52:12.160Z,40.77
2018-04-13T11:54:43.302Z,40.20
2018-04-13T11:57:14.391Z,37.97
2018-04-13T11:59:45.290Z,39.90
2018-04-13T12:02:16.217Z,41.50
2018-04-13T12:04:47.392Z,41.23
2018-04-13T12:07:17.964Z,40.27
2018-04-13T12:09:49.406Z,39.77
2018-04-13T12:12:20.837Z,42.83
2018-04-13T12:14:51.482Z,40.13
2018-04-13T12:17:24.324Z,41.60
2018-04-13T12:19:55.178Z,41.07
2018-04-13T12:22:26.097Z,45.87
2018-04-13T12:24:56.992Z,45.27
2018-04-13T12:27:30.119Z,45.20
2018-04-13T12:30:00.997Z,43.03
2018-04-13T12:32:33.385Z,44.90
2018-04-13T12:35:06.966Z,47.50
2018-04-13T12:37:39.522Z,46.80
2018-04-13T12:40:13.236Z,46.50
2018-04-13T12:42:48.637Z,46.57
2018-04-13T12:45:19.199Z,46.77
2018-04-13T12:47:50.257Z,47.03
2018-04-13T12:50:23.652Z,50.40
2018-04-13T12:52:56.693Z,48.03
2018-04-13T12:55:28.621Z,52.17
2018-04-13T12:57:59.193Z,52.80
2018-04-13T13:00:30.656Z,50.27
2018-04-13T13:03:03.244Z,51.67
2018-04-13T13:05:36.874Z,50.03
2018-04-13T13:08:07.771Z,49.83
2018-04-13T13:10:39.224Z,49.10
2018-04-13T13:13:11.336Z,48.27
2018-04-13T13:15:42.205Z,46.23
2018-04-13T13:18:15.625Z,47.70
2018-04-13T13:20:52.506Z,48.80
2018-04-13T13:23:25.545Z,44.57
2018-04-13T13:25:58.638Z,36.00
2018-04-13T13:28:29.878Z,33.33
2018-04-13T13:31:04.298Z,31.53
2018-04-13T13:33:36.776Z,32.00
2018-04-13T13:36:10.768Z,29.70
2018-04-13T13:38:41.634Z,29.53
2018-04-13T13:41:14.605Z,25.70
2018-04-13T13:43:46.867Z,28.10
2018-04-13T13:46:19.750Z,26.90
2018-04-13T13:48:51.981Z,25.40
2018-04-13T13:51:22.852Z,24.20
2018-04-13T13:53:53.414Z,26.33
2018-04-13T13:56:24.555Z,25.23
2018-04-13T13:58:56.432Z,24.63
2018-04-13T14:01:27.253Z,24.57
2018-04-13T14:03:58.450Z,26.40
2018-04-13T14:06:31.766Z,21.33
2018-04-13T14:09:02.461Z,19.23
2018-04-13T14:11:33.412Z,17.10
2018-04-13T14:14:04.133Z,17.30
2018-04-13T14:16:35.616Z,18.47
2018-04-13T14:19:06.441Z,18.50
2018-04-13T14:21:37.473Z,18.43
2018-04-13T14:27:08.147Z,15.60
2018-04-13T14:29:39.146Z,17.40
2018-04-13T14:32:09.711Z,17.33
2018-04-13T14:34:40.112Z,15.07
2018-04-13T14:37:10.811Z,15.13
2018-04-13T14:39:42.485Z,15.47
2018-04-13T14:42:13.094Z,15.47
2018-04-13T14:44:43.887Z,15.30
2018-04-13T14:47:14.067Z,15.40
2018-04-13T14:49:44.422Z,15.53
2018-04-13T14:52:15.324Z,14.53
2018-04-13T14:54:46.214Z,14.37
2018-04-13T14:57:16.622Z,15.70
2018-04-13T14:59:47.788Z,14.80
2018-04-13T15:02:18.269Z,13.20
2018-04-13T15:04:48.700Z,15.77
2018-04-13T15:07:19.250Z,14.53
2018-04-13T15:09:49.627Z,16.13
2018-04-13T15:12:20.226Z,15.33
2018-04-13T15:14:50.767Z,14.07
2018-04-13T15:17:22.140Z,16.43
2018-04-13T15:19:52.978Z,16.00
2018-04-13T15:22:24.754Z,16.50
2018-04-13T15:24:55.941Z,16.77
2018-04-13T15:27:27.559Z,15.70
2018-04-13T15:29:58.229Z,15.97
2018-04-13T15:32:28.718Z,15.47
2018-04-13T15:34:59.448Z,15.50
2018-04-13T15:37:29.927Z,16.93
2018-04-13T15:40:01.063Z,14.10
2018-04-13T15:42:33.575Z,15.27
2018-04-13T15:45:06.036Z,15.37
2018-04-13T15:47:38.138Z,15.13
2018-04-13T15:50:09.283Z,15.63
2018-04-13T15:52:40.556Z,19.00
2018-04-13T15:55:11.113Z,17.17
2018-04-13T15:57:41.611Z,17.87
2018-04-13T16:00:15.276Z,19.00
2018-04-13T16:02:46.654Z,17.87
2018-04-13T16:05:17.286Z,18.63
2018-04-13T16:07:47.939Z,18.37
2018-04-13T16:10:18.421Z,18.03
2018-04-13T16:12:49.474Z,18.30
2018-04-13T16:15:19.853Z,19.33
2018-04-13T16:17:50.480Z,18.00
2018-04-13T16:20:20.873Z,18.63
2018-04-13T16:22:51.345Z,17.97
2018-04-13T16:25:22.565Z,17.90
2018-04-13T16:27:54.481Z,18.83
2018-04-13T16:30:24.838Z,23.00
2018-04-13T16:32:55.393Z,21.23
2018-04-13T16:35:26.355Z,23.70
2018-04-13T16:37:56.903Z,22.50
2018-04-13T16:40:27.402Z,24.77
2018-04-13T16:42:58.238Z,22.87
2018-04-13T16:45:28.793Z,22.97
2018-04-13T16:47:59.365Z,22.43
2018-04-13T16:50:30.153Z,21.50
2018-04-13T16:53:01.904Z,22.80
2018-04-13T16:55:32.199Z,22.57
2018-04-13T16:58:02.949Z,22.63
2018-04-13T17:00:34.564Z,22.87
2018-04-13T17:03:06.161Z,23.83
2018-04-13T17:05:37.170Z,23.50
2018-04-13T17:08:08.283Z,23.63
2018-04-13T17:10:38.798Z,25.60
2018-04-13T17:13:09.338Z,25.47
2018-04-13T17:15:40.772Z,22.70
2018-04-13T17:18:11.783Z,22.40
2018-04-13T17:20:43.478Z,20.60
2018-04-13T17:23:14.006Z,20.30
2018-04-13T17:25:44.429Z,20.47
2018-04-13T17:28:14.731Z,18.57
2018-04-13T17:30:46.362Z,20.90
2018-04-13T17:33:16.933Z,21.80
2018-04-13T17:35:47.562Z,22.20
2018-04-13T17:38:18.166Z,22.17
2018-04-13T17:40:49.401Z,21.23
2018-04-13T17:43:20.021Z,21.67
2018-04-13T17:45:50.362Z,20.00
2018-04-13T17:48:21.178Z,18.63
2018-04-13T17:50:51.684Z,17.57
2018-04-13T17:53:22.126Z,17.00
2018-04-13T17:55:53.655Z,14.10
2018-04-13T17:58:25.023Z,14.10
2018-04-13T18:00:55.695Z,14.40
2018-04-13T18:03:26.141Z,12.87
2018-04-13T18:05:56.985Z,13.50
2018-04-13T18:08:27.882Z,14.33
2018-04-13T18:10:58.709Z,12.37
2018-04-13T18:13:30.701Z,13.53
2018-04-13T18:16:01.250Z,13.67
2018-04-13T18:18:32.390Z,13.67
2018-04-13T18:21:02.835Z,14.57
2018-04-13T18:23:33.622Z,12.97
2018-04-13T18:26:05.160Z,13.93
2018-04-13T18:28:35.623Z,14.30
2018-04-13T18:31:08.077Z,13.83
2018-04-13T18:33:38.849Z,15.87
2018-04-13T18:36:10.151Z,16.03
2018-04-13T18:38:40.925Z,15.67
2018-04-13T18:41:11.547Z,15.90
2018-04-13T18:43:42.080Z,15.40
2018-04-13T18:46:14.242Z,17.30
2018-04-13T18:48:45.001Z,17.40
2018-04-13T18:51:15.525Z,17.10
2018-04-13T18:53:46.323Z,16.57
2018-04-13T18:56:17.193Z,17.40
2018-04-13T18:58:47.723Z,17.10
2018-04-13T19:01:18.618Z,18.67
2018-04-13T19:03:49.318Z,24.80
2018-04-13T19:06:20.298Z,24.50
2018-04-13T19:08:50.850Z,23.33
2018-04-13T19:11:21.840Z,26.03
2018-04-13T19:13:53.388Z,26.07
2018-04-13T19:16:23.822Z,25.47
2018-04-13T19:18:54.962Z,28.00
2018-04-13T19:21:26.001Z,26.10
2018-04-13T19:23:56.742Z,26.10
2018-04-13T19:26:30.387Z,28.30
2018-04-13T19:29:01.213Z,27.00
2018-04-13T19:31:32.454Z,28.23
2018-04-13T19:34:03.188Z,28.70
2018-04-13T19:36:43.328Z,27.60
2018-04-13T19:39:21.702Z,26.80
2018-04-13T19:42:02.276Z,28.63
2018-04-13T19:44:45.243Z,31.40
2018-04-13T19:47:19.154Z,30.73
2018-04-13T19:49:49.492Z,33.40
2018-04-13T19:52:40.122Z,33.67
2018-04-13T19:55:13.949Z,36.47
2018-04-13T19:57:45.220Z,35.30
2018-04-13T20:00:15.929Z,35.63
2018-04-13T20:02:46.619Z,38.70
2018-04-13T20:05:18.721Z,39.37
2018-04-13T20:07:49.583Z,37.80
2018-04-13T20:10:20.101Z,36.73
2018-04-13T20:12:50.768Z,37.03
2018-04-13T20:15:21.229Z,36.13
2018-04-13T20:17:52.286Z,36.50
2018-04-13T20:20:22.998Z,36.50
2018-04-13T20:22:53.524Z,35.70
2018-04-13T20:25:24.182Z,37.43
2018-04-13T20:27:54.874Z,36.63
2018-04-13T20:30:25.211Z,34.77
2018-04-13T20:32:56.072Z,35.90
2018-04-13T20:35:26.642Z,36.03
2018-04-13T20:37:56.969Z,36.30
2018-04-13T20:40:27.841Z,33.90
2018-04-13T20:42:58.310Z,34.80
2018-04-13T20:45:28.873Z,34.63
2018-04-13T20:48:00.158Z,35.00
2018-04-13T20:50:31.931Z,33.83
2018-04-13T20:53:02.590Z,33.40
2018-04-13T20:55:33.161Z,33.20
2018-04-13T20:58:03.891Z,30.97
2018-04-13T21:00:35.074Z,32.50
2018-04-13T21:03:06.706Z,32.13
2018-04-13T21:05:38.151Z,32.13
2018-04-13T21:08:08.905Z,32.43
2018-04-13T21:10:39.584Z,33.07
2018-04-13T21:13:09.977Z,32.70
2018-04-13T21:15:40.825Z,33.03
2018-04-13T21:18:11.333Z,32.23
2018-04-13T21:20:42.086Z,31.30
2018-04-13T21:23:13.290Z,29.87
2018-04-13T21:25:44.745Z,28.50
2018-04-13T21:28:15.476Z,30.47
2018-04-13T21:30:46.545Z,27.97
2018-04-13T21:33:17.510Z,27.40
2018-04-13T21:35:48.706Z,27.00
2018-04-13T21:38:20.087Z,26.13
2018-04-13T21:40:50.513Z,26.00
2018-04-13T21:43:22.576Z,24.60
2018-04-13T21:45:53.261Z,25.60
2018-04-13T21:48:24.554Z,25.90
2018-04-13T21:50:55.998Z,23.43
2018-04-13T21:53:26.730Z,24.43
2018-04-13T21:55:57.390Z,23.03
2018-04-13T21:58:28.094Z,22.57
2018-04-13T22:00:58.614Z,26.13
2018-04-13T22:03:29.153Z,23.37
2018-04-13T22:05:59.832Z,25.53
2018-04-13T22:08:30.830Z,24.50
2018-04-13T22:11:01.111Z,23.87
2018-04-13T22:13:32.152Z,21.97
2018-04-13T22:16:02.610Z,24.03
2018-04-13T22:18:33.573Z,23.73
2018-04-13T22:21:04.015Z,23.10
2018-04-13T22:23:34.909Z,24.20
2018-04-13T22:26:06.120Z,23.50
2018-04-13T22:28:36.877Z,24.13
2018-04-13T22:31:07.539Z,24.93
2018-04-13T22:33:38.362Z,24.37
2018-04-13T22:36:08.652Z,24.90
2018-04-13T22:38:38.903Z,23.00
2018-04-13T22:41:09.534Z,23.80
2018-04-13T22:43:40.182Z,24.77
2018-04-13T22:46:10.727Z,26.47
2018-04-13T22:48:42.505Z,24.73
2018-04-13T22:51:12.970Z,24.27
2018-04-13T22:53:43.597Z,24.67
2018-04-13T22:56:15.021Z,24.20
2018-04-13T22:58:45.614Z,24.27
2018-04-13T23:01:17.067Z,22.90
2018-04-13T23:03:47.627Z,22.40
2018-04-13T23:06:18.233Z,22.90
2018-04-13T23:08:48.634Z,23.00
2018-04-13T23:11:19.230Z,22.13
2018-04-13T23:13:49.903Z,24.10
2018-04-13T23:16:20.628Z,22.90
2018-04-13T23:18:51.589Z,22.73
2018-04-13T23:21:22.579Z,21.87
2018-04-13T23:23:53.228Z,22.93
2018-04-13T23:26:23.803Z,21.67
2018-04-13T23:28:54.889Z,23.90
2018-04-13T23:31:25.373Z,22.87
2018-04-13T23:33:56.012Z,22.33
2018-04-13T23:36:26.854Z,23.47
2018-04-13T23:38:58.047Z,21.90
2018-04-13T23:41:29.094Z,21.40
2018-04-13T23:43:59.845Z,23.57
2018-04-13T23:46:30.313Z,23.90
2018-04-13T23:49:00.638Z,23.10
2018-04-13T23:51:31.094Z,23.90
2018-04-13T23:54:03.044Z,22.57
2018-04-13T23:56:33.662Z,24.07
2018-04-13T23:59:03.865Z,22.63
